sensor_id;sensor_type;location;lat;lon;timestamp;pressure;altitude;pressure_sealevel;temperature;humidity
32243;BME280;18731;42.830;24.390;2024-03-02T00:02:06;93933.53;;;8.71;78.03
32243;BME280;18731;42.830;24.390;2024-03-02T00:04:32;93936.28;;;8.75;78.39
32243;BME280;18731;42.830;24.390;2024-03-02T00:06:57;93932.28;;;8.68;78.93
32243;BME280;18731;42.830;24.390;2024-03-02T00:09:23;93920.28;;;8.29;79.82
32243;BME280;18731;42.830;24.390;2024-03-02T00:11:48;93933.66;;;8.42;80.05
32243;BME280;18731;42.830;24.390;2024-03-02T00:14:15;93890.22;;;8.17;80.67
32243;BME280;18731;42.830;24.390;2024-03-02T00:16:41;93919.25;;;8.43;80.42
32243;BME280;18731;42.830;24.390;2024-03-02T00:19:07;93922.13;;;8.17;81.31
32243;BME280;18731;42.830;24.390;2024-03-02T00:21:34;93934.63;;;8.16;81.49
32243;BME280;18731;42.830;24.390;2024-03-02T00:24:00;93934.88;;;8.23;81.37
32243;BME280;18731;42.830;24.390;2024-03-02T00:26:29;93933.56;;;8.29;81.24
32243;BME280;18731;42.830;24.390;2024-03-02T00:28:55;93925.47;;;8.47;80.46
32243;BME280;18731;42.830;24.390;2024-03-02T00:31:22;93920.56;;;8.36;80.36
32243;BME280;18731;42.830;24.390;2024-03-02T00:33:48;93927.16;;;8.30;80.60
32243;BME280;18731;42.830;24.390;2024-03-02T00:36:15;93923.25;;;8.28;80.72
32243;BME280;18731;42.830;24.390;2024-03-02T00:38:47;93905.88;;;8.30;80.77
32243;BME280;18731;42.830;24.390;2024-03-02T00:41:21;93904.97;;;8.26;81.07
32243;BME280;18731;42.830;24.390;2024-03-02T00:46:27;93930.25;;;8.32;80.78
32243;BME280;18731;42.830;24.390;2024-03-02T00:48:57;93924.31;;;8.35;80.59
32243;BME280;18731;42.830;24.390;2024-03-02T00:51:24;93916.13;;;8.41;80.80
32243;BME280;18731;42.830;24.390;2024-03-02T00:53:52;93913.03;;;8.38;80.70
32243;BME280;18731;42.830;24.390;2024-03-02T00:56:21;93906.59;;;8.40;80.45
32243;BME280;18731;42.830;24.390;2024-03-02T00:58:46;93906.34;;;8.32;80.34
32243;BME280;18731;42.830;24.390;2024-03-02T01:01:12;93904.97;;;8.26;80.79
32243;BME280;18731;42.830;24.390;2024-03-02T01:03:38;93905.63;;;8.23;81.32
32243;BME280;18731;42.830;24.390;2024-03-02T01:06:04;93904.41;;;8.21;80.75
32243;BME280;18731;42.830;24.390;2024-03-02T01:08:29;93908.91;;;8.08;81.89
32243;BME280;18731;42.830;24.390;2024-03-02T01:10:55;93903.00;;;8.02;82.08
32243;BME280;18731;42.830;24.390;2024-03-02T01:13:24;93894.38;;;8.05;81.96
32243;BME280;18731;42.830;24.390;2024-03-02T01:15:50;93865.09;;;7.93;81.82
32243;BME280;18731;42.830;24.390;2024-03-02T01:18:15;93893.66;;;8.17;81.69
32243;BME280;18731;42.830;24.390;2024-03-02T01:20:41;93879.09;;;7.82;82.28
32243;BME280;18731;42.830;24.390;2024-03-02T01:23:07;93894.25;;;8.02;82.29
32243;BME280;18731;42.830;24.390;2024-03-02T01:25:32;93886.53;;;8.09;82.17
32243;BME280;18731;42.830;24.390;2024-03-02T01:27:58;93874.94;;;7.93;82.04
32243;BME280;18731;42.830;24.390;2024-03-02T01:30:23;93888.44;;;7.88;82.68
32243;BME280;18731;42.830;24.390;2024-03-02T01:32:49;93886.34;;;7.93;82.66
32243;BME280;18731;42.830;24.390;2024-03-02T01:35:14;93884.03;;;7.92;82.82
32243;BME280;18731;42.830;24.390;2024-03-02T01:37:42;93876.09;;;8.04;82.21
32243;BME280;18731;42.830;24.390;2024-03-02T01:40:08;93880.97;;;8.02;81.74
32243;BME280;18731;42.830;24.390;2024-03-02T01:42:37;93886.28;;;7.81;83.34
32243;BME280;18731;42.830;24.390;2024-03-02T01:45:07;93884.41;;;7.82;83.88
32243;BME280;18731;42.830;24.390;2024-03-02T01:47:34;93882.00;;;7.89;83.86
32243;BME280;18731;42.830;24.390;2024-03-02T01:50:00;93861.13;;;7.79;83.83
32243;BME280;18731;42.830;24.390;2024-03-02T01:52:26;93854.59;;;7.55;84.80
32243;BME280;18731;42.830;24.390;2024-03-02T01:54:52;93877.38;;;7.56;85.86
32243;BME280;18731;42.830;24.390;2024-03-02T01:57:18;93869.22;;;7.61;85.96
32243;BME280;18731;42.830;24.390;2024-03-02T01:59:45;93875.63;;;7.60;85.84
32243;BME280;18731;42.830;24.390;2024-03-02T02:02:13;93885.41;;;7.68;85.96
32243;BME280;18731;42.830;24.390;2024-03-02T02:04:39;93881.41;;;7.62;86.41
32243;BME280;18731;42.830;24.390;2024-03-02T02:07:04;93878.63;;;7.59;86.41
32243;BME280;18731;42.830;24.390;2024-03-02T02:09:31;93882.97;;;7.63;86.33
32243;BME280;18731;42.830;24.390;2024-03-02T02:11:57;93878.41;;;7.64;86.49
32243;BME280;18731;42.830;24.390;2024-03-02T02:14:23;93883.88;;;7.67;86.56
32243;BME280;18731;42.830;24.390;2024-03-02T02:16:48;93890.09;;;7.71;86.30
32243;BME280;18731;42.830;24.390;2024-03-02T02:19:14;93881.66;;;7.69;86.46
32243;BME280;18731;42.830;24.390;2024-03-02T02:21:43;93888.13;;;7.39;88.09
32243;BME280;18731;42.830;24.390;2024-03-02T02:24:09;93892.41;;;7.52;87.80
32243;BME280;18731;42.830;24.390;2024-03-02T02:26:34;93886.97;;;7.49;87.86
32243;BME280;18731;42.830;24.390;2024-03-02T02:29:00;93891.50;;;7.48;88.28
32243;BME280;18731;42.830;24.390;2024-03-02T02:31:25;93876.59;;;7.56;88.19
32243;BME280;18731;42.830;24.390;2024-03-02T02:33:51;93880.41;;;7.46;88.43
32243;BME280;18731;42.830;24.390;2024-03-02T02:36:16;93883.59;;;7.39;89.28
32243;BME280;18731;42.830;24.390;2024-03-02T02:38:45;93888.25;;;7.42;89.14
32243;BME280;18731;42.830;24.390;2024-03-02T02:41:12;93877.19;;;7.40;89.25
32243;BME280;18731;42.830;24.390;2024-03-02T02:43:38;93886.56;;;7.38;89.18
32243;BME280;18731;42.830;24.390;2024-03-02T02:46:05;93878.06;;;7.24;90.21
32243;BME280;18731;42.830;24.390;2024-03-02T02:48:30;93879.97;;;7.15;91.42
32243;BME280;18731;42.830;24.390;2024-03-02T02:50:56;93894.53;;;7.08;92.12
32243;BME280;18731;42.830;24.390;2024-03-02T02:53:21;93891.28;;;7.03;93.16
32243;BME280;18731;42.830;24.390;2024-03-02T02:55:47;93874.59;;;7.02;93.78
32243;BME280;18731;42.830;24.390;2024-03-02T02:58:12;93831.53;;;6.67;94.34
32243;BME280;18731;42.830;24.390;2024-03-02T03:00:38;93877.59;;;6.45;97.94
32243;BME280;18731;42.830;24.390;2024-03-02T03:03:05;93832.16;;;6.18;100.00
32243;BME280;18731;42.830;24.390;2024-03-02T03:05:30;93858.59;;;6.43;100.00
32243;BME280;18731;42.830;24.390;2024-03-02T03:07:56;93870.13;;;6.48;100.00
32243;BME280;18731;42.830;24.390;2024-03-02T03:10:22;93869.69;;;6.37;100.00
32243;BME280;18731;42.830;24.390;2024-03-02T03:12:48;93881.22;;;6.32;100.00
32243;BME280;18731;42.830;24.390;2024-03-02T03:15:14;93872.34;;;6.28;100.00
32243;BME280;18731;42.830;24.390;2024-03-02T03:17:41;93883.88;;;6.32;100.00
32243;BME280;18731;42.830;24.390;2024-03-02T03:20:07;93866.56;;;6.35;100.00
32243;BME280;18731;42.830;24.390;2024-03-02T03:22:37;93864.69;;;6.35;100.00
32243;BME280;18731;42.830;24.390;2024-03-02T03:25:02;93829.06;;;6.07;100.00
32243;BME280;18731;42.830;24.390;2024-03-02T03:27:29;93839.78;;;6.28;100.00
32243;BME280;18731;42.830;24.390;2024-03-02T03:29:54;93861.53;;;6.51;100.00
32243;BME280;18731;42.830;24.390;2024-03-02T03:32:20;93858.31;;;6.36;100.00
32243;BME280;18731;42.830;24.390;2024-03-02T03:34:45;93874.06;;;6.24;100.00
32243;BME280;18731;42.830;24.390;2024-03-02T03:37:13;93869.53;;;6.33;100.00
32243;BME280;18731;42.830;24.390;2024-03-02T03:39:38;93873.22;;;6.50;100.00
32243;BME280;18731;42.830;24.390;2024-03-02T03:42:04;93871.03;;;6.52;100.00
32243;BME280;18731;42.830;24.390;2024-03-02T03:44:30;93870.06;;;6.65;100.00
32243;BME280;18731;42.830;24.390;2024-03-02T03:46:55;93876.63;;;6.59;100.00
32243;BME280;18731;42.830;24.390;2024-03-02T03:49:21;93859.75;;;6.72;99.06
32243;BME280;18731;42.830;24.390;2024-03-02T03:51:46;93869.91;;;6.61;99.24
32243;BME280;18731;42.830;24.390;2024-03-02T03:54:12;93874.50;;;6.43;100.00
32243;BME280;18731;42.830;24.390;2024-03-02T03:56:37;93868.56;;;6.47;100.00
32243;BME280;18731;42.830;24.390;2024-03-02T03:59:03;93868.56;;;6.47;100.00
32243;BME280;18731;42.830;24.390;2024-03-02T04:01:30;93832.28;;;6.30;100.00
32243;BME280;18731;42.830;24.390;2024-03-02T04:03:57;93859.22;;;6.40;100.00
32243;BME280;18731;42.830;24.390;2024-03-02T04:06:22;93822.50;;;6.22;100.00
32243;BME280;18731;42.830;24.390;2024-03-02T04:08:48;93844.25;;;6.44;100.00
32243;BME280;18731;42.830;24.390;2024-03-02T04:11:13;93842.41;;;6.36;100.00
32243;BME280;18731;42.830;24.390;2024-03-02T04:13:39;93851.44;;;6.35;100.00
32243;BME280;18731;42.830;24.390;2024-03-02T04:16:05;93850.38;;;6.28;100.00
32243;BME280;18731;42.830;24.390;2024-03-02T04:18:31;93860.19;;;6.27;100.00
32243;BME280;18731;42.830;24.390;2024-03-02T04:20:57;93864.06;;;6.38;100.00
32243;BME280;18731;42.830;24.390;2024-03-02T04:23:27;93868.91;;;6.36;100.00
32243;BME280;18731;42.830;24.390;2024-03-02T04:25:53;93866.72;;;6.38;100.00
32243;BME280;18731;42.830;24.390;2024-03-02T04:28:18;93872.03;;;6.30;100.00
32243;BME280;18731;42.830;24.390;2024-03-02T04:30:44;93832.66;;;6.02;100.00
32243;BME280;18731;42.830;24.390;2024-03-02T04:33:09;93877.78;;;6.32;100.00
32243;BME280;18731;42.830;24.390;2024-03-02T04:35:38;93872.06;;;6.21;100.00
32243;BME280;18731;42.830;24.390;2024-03-02T04:38:03;93840.28;;;6.04;100.00
32243;BME280;18731;42.830;24.390;2024-03-02T04:40:29;93872.50;;;6.23;100.00
32243;BME280;18731;42.830;24.390;2024-03-02T04:42:54;93877.78;;;6.32;100.00
32243;BME280;18731;42.830;24.390;2024-03-02T04:45:20;93883.91;;;6.24;100.00
32243;BME280;18731;42.830;24.390;2024-03-02T04:47:45;93882.78;;;6.33;100.00
32243;BME280;18731;42.830;24.390;2024-03-02T04:50:11;93886.06;;;6.30;100.00
32243;BME280;18731;42.830;24.390;2024-03-02T04:52:36;93893.22;;;6.30;100.00
32243;BME280;18731;42.830;24.390;2024-03-02T04:55:03;93903.66;;;6.35;100.00
32243;BME280;18731;42.830;24.390;2024-03-02T04:57:44;93878.88;;;6.39;100.00
32243;BME280;18731;42.830;24.390;2024-03-02T05:00:10;93885.59;;;6.37;100.00
32243;BME280;18731;42.830;24.390;2024-03-02T05:02:36;93899.16;;;6.35;100.00
32243;BME280;18731;42.830;24.390;2024-03-02T05:05:01;93903.34;;;6.36;100.00
32243;BME280;18731;42.830;24.390;2024-03-02T05:07:27;93900.84;;;6.40;100.00
32243;BME280;18731;42.830;24.390;2024-03-02T05:09:53;93903.81;;;6.38;100.00
32243;BME280;18731;42.830;24.390;2024-03-02T05:12:19;93899.78;;;6.32;100.00
32243;BME280;18731;42.830;24.390;2024-03-02T05:14:56;93910.41;;;6.24;100.00
32243;BME280;18731;42.830;24.390;2024-03-02T05:17:21;93906.63;;;6.33;100.00
32243;BME280;18731;42.830;24.390;2024-03-02T05:19:47;93923.19;;;6.13;100.00
32243;BME280;18731;42.830;24.390;2024-03-02T05:22:13;93913.53;;;6.17;100.00
32243;BME280;18731;42.830;24.390;2024-03-02T05:24:38;93921.16;;;6.19;100.00
32243;BME280;18731;42.830;24.390;2024-03-02T05:27:04;93928.00;;;6.28;100.00
32243;BME280;18731;42.830;24.390;2024-03-02T05:29:31;93919.44;;;6.31;100.00
32243;BME280;18731;42.830;24.390;2024-03-02T05:31:57;93917.06;;;6.38;100.00
32243;BME280;18731;42.830;24.390;2024-03-02T05:34:22;93937.22;;;6.22;100.00
32243;BME280;18731;42.830;24.390;2024-03-02T05:36:47;93929.88;;;6.28;100.00
32243;BME280;18731;42.830;24.390;2024-03-02T05:39:13;93895.44;;;6.10;100.00
32243;BME280;18731;42.830;24.390;2024-03-02T05:41:39;93931.41;;;6.37;100.00
32243;BME280;18731;42.830;24.390;2024-03-02T05:44:04;93932.81;;;6.43;100.00
32243;BME280;18731;42.830;24.390;2024-03-02T05:46:30;93932.66;;;6.40;100.00
32243;BME280;18731;42.830;24.390;2024-03-02T05:48:56;93930.50;;;6.33;100.00
32243;BME280;18731;42.830;24.390;2024-03-02T05:51:21;93937.97;;;6.40;100.00
32243;BME280;18731;42.830;24.390;2024-03-02T05:53:46;93932.34;;;6.41;100.00
32243;BME280;18731;42.830;24.390;2024-03-02T05:56:13;93946.06;;;6.35;100.00
32243;BME280;18731;42.830;24.390;2024-03-02T05:58:38;93936.88;;;6.41;100.00
32243;BME280;18731;42.830;24.390;2024-03-02T06:01:26;93949.19;;;6.37;100.00
32243;BME280;18731;42.830;24.390;2024-03-02T06:03:57;93945.31;;;6.34;100.00
32243;BME280;18731;42.830;24.390;2024-03-02T06:06:24;93944.38;;;6.30;100.00
32243;BME280;18731;42.830;24.390;2024-03-02T06:08:50;93913.19;;;6.27;100.00
32243;BME280;18731;42.830;24.390;2024-03-02T06:11:16;93943.56;;;6.47;100.00
32243;BME280;18731;42.830;24.390;2024-03-02T06:13:41;93942.16;;;6.50;100.00
32243;BME280;18731;42.830;24.390;2024-03-02T06:16:07;93946.50;;;6.63;100.00
32243;BME280;18731;42.830;24.390;2024-03-02T06:18:34;93937.59;;;6.67;100.00
32243;BME280;18731;42.830;24.390;2024-03-02T06:20:59;93940.50;;;6.83;99.01
32243;BME280;18731;42.830;24.390;2024-03-02T06:23:26;93935.81;;;6.89;98.70
32243;BME280;18731;42.830;24.390;2024-03-02T06:25:52;93938.16;;;6.90;97.36
32243;BME280;18731;42.830;24.390;2024-03-02T06:28:18;93936.00;;;6.84;96.91
32243;BME280;18731;42.830;24.390;2024-03-02T06:30:43;93935.84;;;6.80;97.39
32243;BME280;18731;42.830;24.390;2024-03-02T06:33:10;93950.97;;;6.80;97.27
32243;BME280;18731;42.830;24.390;2024-03-02T06:35:36;93921.06;;;6.62;97.68
32243;BME280;18731;42.830;24.390;2024-03-02T06:38:01;93952.22;;;6.82;98.18
32243;BME280;18731;42.830;24.390;2024-03-02T06:40:27;93955.91;;;6.98;96.72
32243;BME280;18731;42.830;24.390;2024-03-02T06:42:53;93932.56;;;6.83;95.75
32243;BME280;18731;42.830;24.390;2024-03-02T06:45:18;93956.84;;;7.02;96.00
32243;BME280;18731;42.830;24.390;2024-03-02T06:47:44;93964.28;;;7.09;95.22
32243;BME280;18731;42.830;24.390;2024-03-02T06:50:10;93950.72;;;7.10;95.36
32243;BME280;18731;42.830;24.390;2024-03-02T06:52:35;93968.38;;;7.06;95.73
32243;BME280;18731;42.830;24.390;2024-03-02T06:55:02;93950.72;;;7.10;95.78
32243;BME280;18731;42.830;24.390;2024-03-02T06:57:27;93953.41;;;7.02;96.04
32243;BME280;18731;42.830;24.390;2024-03-02T06:59:53;93943.28;;;6.95;96.29
32243;BME280;18731;42.830;24.390;2024-03-02T07:02:22;93910.91;;;6.72;97.29
32243;BME280;18731;42.830;24.390;2024-03-02T07:04:48;93937.47;;;7.02;97.03
32243;BME280;18731;42.830;24.390;2024-03-02T07:07:14;93946.09;;;6.90;98.24
32243;BME280;18731;42.830;24.390;2024-03-02T07:09:39;93960.47;;;6.89;98.42
32243;BME280;18731;42.830;24.390;2024-03-02T07:12:05;93946.25;;;6.94;98.12
32243;BME280;18731;42.830;24.390;2024-03-02T07:14:30;93959.47;;;7.02;98.62
32243;BME280;18731;42.830;24.390;2024-03-02T07:17:14;93958.22;;;7.08;97.74
32243;BME280;18731;42.830;24.390;2024-03-02T07:19:40;93956.31;;;7.18;97.92
32243;BME280;18731;42.830;24.390;2024-03-02T07:22:06;93949.13;;;7.18;96.66
32243;BME280;18731;42.830;24.390;2024-03-02T07:24:32;93951.91;;;7.22;95.87
32243;BME280;18731;42.830;24.390;2024-03-02T07:26:58;93958.84;;;7.05;96.74
32243;BME280;18731;42.830;24.390;2024-03-02T07:29:23;93958.34;;;7.12;97.15
32243;BME280;18731;42.830;24.390;2024-03-02T07:31:49;93960.38;;;7.15;97.14
32243;BME280;18731;42.830;24.390;2024-03-02T07:34:15;93959.41;;;7.20;96.44
32243;BME280;18731;42.830;24.390;2024-03-02T07:36:40;93950.97;;;7.26;96.64
32243;BME280;18731;42.830;24.390;2024-03-02T07:39:06;93947.88;;;7.16;96.25
32243;BME280;18731;42.830;24.390;2024-03-02T07:41:32;93927.38;;;6.87;96.85
32243;BME280;18731;42.830;24.390;2024-03-02T07:43:58;93956.13;;;7.23;97.64
32243;BME280;18731;42.830;24.390;2024-03-02T07:46:23;93962.81;;;7.29;96.88
32243;BME280;18731;42.830;24.390;2024-03-02T07:48:49;93924.72;;;7.25;94.76
32243;BME280;18731;42.830;24.390;2024-03-02T07:51:17;93959.38;;;7.28;95.34
32243;BME280;18731;42.830;24.390;2024-03-02T07:53:42;93963.53;;;7.38;95.07
32243;BME280;18731;42.830;24.390;2024-03-02T07:56:08;93954.09;;;7.20;94.56
32243;BME280;18731;42.830;24.390;2024-03-02T07:58:33;93963.91;;;7.28;95.79
32243;BME280;18731;42.830;24.390;2024-03-02T08:01:00;93959.97;;;7.34;94.96
32243;BME280;18731;42.830;24.390;2024-03-02T08:03:26;93969.41;;;7.23;95.57
32243;BME280;18731;42.830;24.390;2024-03-02T08:05:52;93972.78;;;7.32;96.10
32243;BME280;18731;42.830;24.390;2024-03-02T08:08:18;93978.03;;;7.49;95.74
32243;BME280;18731;42.830;24.390;2024-03-02T08:10:44;93945.75;;;7.38;92.86
32243;BME280;18731;42.830;24.390;2024-03-02T08:13:09;93974.34;;;7.62;93.07
32243;BME280;18731;42.830;24.390;2024-03-02T08:15:34;93954.56;;;7.51;92.53
32243;BME280;18731;42.830;24.390;2024-03-02T08:18:00;93987.13;;;7.69;92.93
32243;BME280;18731;42.830;24.390;2024-03-02T08:20:26;93988.03;;;7.73;91.83
32243;BME280;18731;42.830;24.390;2024-03-02T08:22:51;93980.84;;;7.73;90.98
32243;BME280;18731;42.830;24.390;2024-03-02T08:25:20;93984.25;;;7.83;91.23
32243;BME280;18731;42.830;24.390;2024-03-02T08:27:46;93995.47;;;7.88;91.90
32243;BME280;18731;42.830;24.390;2024-03-02T08:30:12;93992.63;;;7.93;89.96
32243;BME280;18731;42.830;24.390;2024-03-02T08:32:37;93984.41;;;7.86;90.14
32243;BME280;18731;42.830;24.390;2024-03-02T08:35:04;93979.63;;;8.00;90.13
32243;BME280;18731;42.830;24.390;2024-03-02T08:37:29;93991.75;;;8.10;88.90
32243;BME280;18731;42.830;24.390;2024-03-02T08:39:55;93967.94;;;8.14;88.03
32243;BME280;18731;42.830;24.390;2024-03-02T08:42:20;93971.66;;;8.21;89.98
32243;BME280;18731;42.830;24.390;2024-03-02T08:44:46;93969.19;;;8.37;90.39
32243;BME280;18731;42.830;24.390;2024-03-02T08:47:12;93958.84;;;8.56;88.62
32243;BME280;18731;42.830;24.390;2024-03-02T08:49:38;93960.13;;;8.71;86.92
32243;BME280;18731;42.830;24.390;2024-03-02T08:52:04;93962.25;;;8.78;85.43
32243;BME280;18731;42.830;24.390;2024-03-02T08:54:30;93968.63;;;8.97;86.54
32243;BME280;18731;42.830;24.390;2024-03-02T08:56:55;93940.69;;;9.03;83.60
32243;BME280;18731;42.830;24.390;2024-03-02T08:59:21;93957.09;;;9.18;82.56
32243;BME280;18731;42.830;24.390;2024-03-02T09:01:46;93968.22;;;9.20;81.61
32243;BME280;18731;42.830;24.390;2024-03-02T09:04:12;93957.78;;;9.27;82.33
32243;BME280;18731;42.830;24.390;2024-03-02T09:06:38;93930.03;;;9.03;82.36
32243;BME280;18731;42.830;24.390;2024-03-02T09:09:03;93952.78;;;9.25;81.53
32243;BME280;18731;42.830;24.390;2024-03-02T09:11:29;93957.34;;;9.25;80.88
32243;BME280;18731;42.830;24.390;2024-03-02T09:13:55;93957.34;;;9.25;80.41
32243;BME280;18731;42.830;24.390;2024-03-02T09:16:21;93961.75;;;9.09;79.65
32243;BME280;18731;42.830;24.390;2024-03-02T09:18:47;93971.88;;;9.15;78.91
32243;BME280;18731;42.830;24.390;2024-03-02T09:21:13;93978.84;;;9.20;79.43
32243;BME280;18731;42.830;24.390;2024-03-02T09:23:38;93934.78;;;8.98;79.66
32243;BME280;18731;42.830;24.390;2024-03-02T09:26:05;93972.63;;;9.16;79.37
32243;BME280;18731;42.830;24.390;2024-03-02T09:28:31;93953.56;;;9.14;79.87
32243;BME280;18731;42.830;24.390;2024-03-02T09:30:56;93954.66;;;9.00;78.47
32243;BME280;18731;42.830;24.390;2024-03-02T09:33:22;93959.09;;;9.09;79.62
32243;BME280;18731;42.830;24.390;2024-03-02T09:35:47;93961.44;;;9.22;79.40
32243;BME280;18731;42.830;24.390;2024-03-02T09:38:14;93936.25;;;9.20;79.14
32243;BME280;18731;42.830;24.390;2024-03-02T09:40:41;93953.78;;;9.33;79.77
32243;BME280;18731;42.830;24.390;2024-03-02T09:43:07;93946.59;;;9.46;79.18
32243;BME280;18731;42.830;24.390;2024-03-02T09:45:32;93942.69;;;9.55;77.69
32243;BME280;18731;42.830;24.390;2024-03-02T09:47:59;93959.56;;;9.35;78.97
32243;BME280;18731;42.830;24.390;2024-03-02T09:50:25;93958.47;;;9.48;78.10
32243;BME280;18731;42.830;24.390;2024-03-02T09:52:50;93955.13;;;9.63;78.03
32243;BME280;18731;42.830;24.390;2024-03-02T09:55:18;93960.44;;;9.63;76.72
32243;BME280;18731;42.830;24.390;2024-03-02T09:57:45;93951.91;;;9.46;77.79
32243;BME280;18731;42.830;24.390;2024-03-02T10:00:11;93960.91;;;9.65;78.48
32243;BME280;18731;42.830;24.390;2024-03-02T10:02:41;93960.00;;;9.74;76.24
32243;BME280;18731;42.830;24.390;2024-03-02T10:05:10;93956.00;;;9.67;75.45
32243;BME280;18731;42.830;24.390;2024-03-02T10:07:37;93962.34;;;9.63;74.78
32243;BME280;18731;42.830;24.390;2024-03-02T10:10:13;93942.47;;;9.60;73.65
32243;BME280;18731;42.830;24.390;2024-03-02T10:12:40;93961.09;;;9.73;69.92
32243;BME280;18731;42.830;24.390;2024-03-02T10:15:06;93948.06;;;10.08;72.43
32243;BME280;18731;42.830;24.390;2024-03-02T10:17:32;93950.03;;;10.23;65.00
32243;BME280;18731;42.830;24.390;2024-03-02T10:19:58;93949.22;;;10.47;64.39
32243;BME280;18731;42.830;24.390;2024-03-02T10:22:24;93956.59;;;10.66;62.41
32243;BME280;18731;42.830;24.390;2024-03-02T10:24:49;93941.81;;;10.84;62.76
32243;BME280;18731;42.830;24.390;2024-03-02T10:27:17;93936.25;;;11.05;62.12
32243;BME280;18731;42.830;24.390;2024-03-02T10:29:45;93932.53;;;11.25;61.18
32243;BME280;18731;42.830;24.390;2024-03-02T10:32:11;93925.56;;;11.36;60.88
32243;BME280;18731;42.830;24.390;2024-03-02T10:34:37;93936.31;;;11.55;60.66
32243;BME280;18731;42.830;24.390;2024-03-02T10:37:05;93928.47;;;11.78;59.50
32243;BME280;18731;42.830;24.390;2024-03-02T10:39:32;93930.75;;;11.96;60.80
32243;BME280;18731;42.830;24.390;2024-03-02T10:41:58;93934.81;;;11.74;63.83
32243;BME280;18731;42.830;24.390;2024-03-02T10:44:25;93935.13;;;11.53;65.09
32243;BME280;18731;42.830;24.390;2024-03-02T10:46:52;93939.69;;;11.52;65.54
32243;BME280;18731;42.830;24.390;2024-03-02T10:49:20;93951.25;;;11.25;66.44
32243;BME280;18731;42.830;24.390;2024-03-02T10:51:47;93944.25;;;11.05;68.69
32243;BME280;18731;42.830;24.390;2024-03-02T10:54:13;93944.31;;;10.92;68.99
32243;BME280;18731;42.830;24.390;2024-03-02T10:56:40;93956.59;;;10.66;69.81
32243;BME280;18731;42.830;24.390;2024-03-02T10:59:28;93956.09;;;10.48;70.40
32243;BME280;18731;42.830;24.390;2024-03-02T11:01:59;93958.78;;;10.36;71.00
32243;BME280;18731;42.830;24.390;2024-03-02T11:04:27;93960.59;;;10.19;71.37
32243;BME280;18731;42.830;24.390;2024-03-02T11:06:58;93961.84;;;9.97;72.66
32243;BME280;18731;42.830;24.390;2024-03-02T11:09:27;93953.53;;;9.99;73.43
32243;BME280;18731;42.830;24.390;2024-03-02T11:14:43;93949.75;;;9.88;74.68
32243;BME280;18731;42.830;24.390;2024-03-02T11:17:10;93950.22;;;9.78;74.68
32243;BME280;18731;42.830;24.390;2024-03-02T11:19:38;93926.06;;;9.46;75.85
32243;BME280;18731;42.830;24.390;2024-03-02T11:22:04;93955.34;;;9.58;76.05
32243;BME280;18731;42.830;24.390;2024-03-02T11:24:31;93957.44;;;9.77;76.03
32243;BME280;18731;42.830;24.390;2024-03-02T11:27:03;93923.56;;;9.78;74.83
32243;BME280;18731;42.830;24.390;2024-03-02T11:29:47;93956.09;;;9.95;75.05
32243;BME280;18731;42.830;24.390;2024-03-02T11:32:20;93954.88;;;9.93;74.49
32243;BME280;18731;42.830;24.390;2024-03-02T11:34:48;93918.44;;;9.85;74.64
32243;BME280;18731;42.830;24.390;2024-03-02T11:37:16;93947.31;;;9.95;74.19
32243;BME280;18731;42.830;24.390;2024-03-02T11:39:43;93937.44;;;9.83;74.85
32243;BME280;18731;42.830;24.390;2024-03-02T11:42:11;93946.00;;;9.77;75.59
32243;BME280;18731;42.830;24.390;2024-03-02T11:44:37;93944.00;;;9.74;75.75
32243;BME280;18731;42.830;24.390;2024-03-02T11:47:08;93949.69;;;9.72;75.83
32243;BME280;18731;42.830;24.390;2024-03-02T11:49:46;93954.22;;;9.84;75.74
32243;BME280;18731;42.830;24.390;2024-03-02T11:52:14;93940.00;;;9.80;75.18
32243;BME280;18731;42.830;24.390;2024-03-02T11:54:42;93954.88;;;9.81;75.63
32243;BME280;18731;42.830;24.390;2024-03-02T11:57:21;93952.34;;;9.72;75.23
32243;BME280;18731;42.830;24.390;2024-03-02T11:59:50;93915.06;;;9.48;75.27
32243;BME280;18731;42.830;24.390;2024-03-02T12:02:20;93939.59;;;9.53;75.77
32243;BME280;18731;42.830;24.390;2024-03-02T12:04:47;93933.59;;;9.32;75.53
32243;BME280;18731;42.830;24.390;2024-03-02T12:07:23;93922.06;;;9.28;75.89
32243;BME280;18731;42.830;24.390;2024-03-02T12:09:49;93960.66;;;9.34;75.88
32243;BME280;18731;42.830;24.390;2024-03-02T12:12:24;93961.00;;;9.45;76.68
32243;BME280;18731;42.830;24.390;2024-03-02T12:14:51;93968.44;;;9.51;76.24
32243;BME280;18731;42.830;24.390;2024-03-02T12:17:17;93961.56;;;9.75;75.95
32243;BME280;18731;42.830;24.390;2024-03-02T12:19:44;93964.34;;;9.66;75.38
32243;BME280;18731;42.830;24.390;2024-03-02T12:22:11;93933.81;;;9.39;75.80
32243;BME280;18731;42.830;24.390;2024-03-02T12:24:36;93967.34;;;9.52;76.14
32243;BME280;18731;42.830;24.390;2024-03-02T12:27:03;93973.09;;;9.42;76.43
32243;BME280;18731;42.830;24.390;2024-03-02T12:29:30;93969.88;;;9.49;77.26
32243;BME280;18731;42.830;24.390;2024-03-02T12:31:55;93974.00;;;9.58;76.20
32243;BME280;18731;42.830;24.390;2024-03-02T12:34:21;93976.88;;;9.53;76.35
32243;BME280;18731;42.830;24.390;2024-03-02T12:36:47;93976.00;;;9.49;77.46
32243;BME280;18731;42.830;24.390;2024-03-02T12:39:16;93946.03;;;9.28;76.74
32243;BME280;18731;42.830;24.390;2024-03-02T12:41:41;93982.31;;;9.57;77.69
32243;BME280;18731;42.830;24.390;2024-03-02T12:44:07;93981.31;;;9.49;79.09
32243;BME280;18731;42.830;24.390;2024-03-02T12:46:33;93986.22;;;9.59;77.81
32243;BME280;18731;42.830;24.390;2024-03-02T12:49:12;93987.97;;;9.67;77.76
32243;BME280;18731;42.830;24.390;2024-03-02T12:51:39;93983.66;;;9.51;77.96
32243;BME280;18731;42.830;24.390;2024-03-02T12:54:09;93997.53;;;9.56;77.70
32243;BME280;18731;42.830;24.390;2024-03-02T12:56:37;93998.19;;;9.53;78.20
32243;BME280;18731;42.830;24.390;2024-03-02T12:59:04;93995.53;;;9.53;77.71
32243;BME280;18731;42.830;24.390;2024-03-02T13:01:31;94002.63;;;9.74;78.40